بريدة, Saudi Arabia

07:14 AM AST on êèنêè 25, 2016 (GMT +0300)
Gassim | | Change Station

Elev 2126 ft 26.30 °N, 43.77 °E | Updated 14 minutes ago

Clear
صافية
84 °F
Feels Like 83 °F
N
0
ريح متغير ريح from شمال

هذا اليوم
High -- | Low -- °F
--% Chance of Precip.
Yesterday
High -- | Low -- °F
Precip. -- في
الضغط 29.65 في
وضوح الرؤية -9999.0 أميال
سحابات
مؤشر الحرارة 83 °F
نقطة الندى 54 °F
الرطوبة 35%
Rainfall 0.00 في
عمق الثلج Not available.
5:26 AM 6:54 PM
الأحدب الأخير, 70% visible
METAR OEGS 250400Z 00000KT CAVOK 29/12 Q1004
الضغط 29.65 في
وضوح الرؤية -9999.0 أميال
سحابات
مؤشر الحرارة 83 °F
نقطة الندى 54 °F
الرطوبة 35%
Rainfall 0.00 في
عمق الثلج Not available.
5:26 AM 6:54 PM
الأحدب الأخير, 70% visible
METAR OEGS 250400Z 00000KT CAVOK 29/12 Q1004

10-Day Weather Forecast

No radar image for this location.
×

Almanac

علم الفلك

Jul. 25, 2016 Rise Set
Actual Time
Civil Twilight
Nautical Twilight
Astronomical Twilight
قمر
Length Of Visible Light
طول الیوم
Tomorrow will be .
, % of the Moon is Illuminated

Today's Extremes

Country Highs Country Lows

Community

WunderPhotos

Upload Photos

1,927,264 photos uploaded!

WunderBlog® & News

Nearby

جودة الهواء

  جودة الهواء AQ Index Pollutant
Not available.

عمق الثلج

Station Depth Elevation

Earthquake Activity

City Distance Mag. Time & Date
Minimum magnitude displayed is 2.5.

Coastal Water Temperatures

مكان درجات الحرارة

Stations

Nearby Weather Stations

Station Location الحرارة رياح باردة نقطة الندى الرطوبة ريح Precip. Elev تحديث Type